Terminal Aerodrome Forecast
Issued by NWS Sterling, VA

Home | Current Version | Previous Version | Text Only | Print | Product List | Glossary On
Versions: 1 2 3 4 5 6 7 8 9 10 11 12 13 14 15 16 17 18 19 20 21 22 23
000
FTUS41 KLWX 012042 AAA
TAFBWI
TAF AMD
KBWI 012042Z 0121/0224 05010KT 2SM -DZ OVC005
     FM012200 06008KT 3SM -SHRA BR OVC008
     FM020000 05006KT 5SM BR OVC008
     FM020600 VRB03KT 2SM BR OVC004
     FM021400 06002KT 5SM BR OVC015
     FM021600 VRB03KT P6SM SCT025 BKN040
     FM022000 21004KT P6SM FEW040 SCT250=

USA.gov is the U.S. government's official web portal to all federal, state and local government web resources and services.